Terminal Aerodrome Forecast
Issued by NWS

Home | Current Version | Previous Version | Text Only | Print | Product List | Glossary On
Versions: 1 2 3 4 5 6 7 8 9 10 11 12 13 14 15
000
FTUS45 KFGZ 030529
TAFSEZ
TAF
KSEZ 030529Z 0306/0406 05007G14KT P6SM FEW100
     FM031600 19008KT P6SM FEW110
     FM032200 23008KT P6SM FEW120
     FM040400 05008KT P6SM SKC=

USA.gov is the U.S. government's official web portal to all federal, state and local government web resources and services.